Terminal Aerodrome Forecast
Issued by NWS

Home | Current Version | Previous Version | Text Only | Print | Product List | Glossary On
Versions: 1 2 3 4 5 6 7 8 9 10 11 12 13 14 15
000
FTUS46 KPDT 270900 AAA
TAFALW
TAF AMD
KALW 270957Z 2710/2806 20011KT P6SM BKN030 OVC050
     FM271600 18010KT 5SM -RA BR SCT020 OVC040
     FM272100 21012KT 5SM -RA BR SCT015 OVC030
     FM280400 20014G20KT P6SM SCT030 SCT090=

USA.gov is the U.S. government's official web portal to all federal, state and local government web resources and services.